sensor_id;sensor_type;location;lat;lon;timestamp;P1;durP1;ratioP1;P2;durP2;ratioP2
2546;SDS011;1283;47.982;7.834;2022-08-16T00:00:21;6.75;;;4.35;;
2546;SDS011;1283;47.982;7.834;2022-08-16T00:02:49;11.43;;;4.43;;
2546;SDS011;1283;47.982;7.834;2022-08-16T00:05:17;10.57;;;4.07;;
2546;SDS011;1283;47.982;7.834;2022-08-16T00:07:44;6.13;;;4.63;;
2546;SDS011;1283;47.982;7.834;2022-08-16T00:10:11;9.15;;;4.05;;
2546;SDS011;1283;47.982;7.834;2022-08-16T00:12:38;9.00;;;5.00;;
2546;SDS011;1283;47.982;7.834;2022-08-16T00:15:09;7.57;;;4.80;;
2546;SDS011;1283;47.982;7.834;2022-08-16T00:17:38;5.97;;;3.83;;
2546;SDS011;1283;47.982;7.834;2022-08-16T00:20:05;8.77;;;4.70;;
2546;SDS011;1283;47.982;7.834;2022-08-16T00:22:33;6.25;;;4.50;;
2546;SDS011;1283;47.982;7.834;2022-08-16T00:25:00;7.15;;;4.78;;
2546;SDS011;1283;47.982;7.834;2022-08-16T00:27:26;12.93;;;5.50;;
2546;SDS011;1283;47.982;7.834;2022-08-16T00:29:53;7.32;;;4.78;;
2546;SDS011;1283;47.982;7.834;2022-08-16T00:34:47;8.00;;;4.72;;
2546;SDS011;1283;47.982;7.834;2022-08-16T00:37:13;14.95;;;5.05;;
2546;SDS011;1283;47.982;7.834;2022-08-16T00:39:40;12.07;;;4.85;;
2546;SDS011;1283;47.982;7.834;2022-08-16T00:42:06;8.15;;;4.85;;
2546;SDS011;1283;47.982;7.834;2022-08-16T00:44:33;9.45;;;6.55;;
2546;SDS011;1283;47.982;7.834;2022-08-16T00:47:01;9.18;;;5.20;;
2546;SDS011;1283;47.982;7.834;2022-08-16T00:49:31;10.48;;;5.38;;
2546;SDS011;1283;47.982;7.834;2022-08-16T00:51:58;15.82;;;5.35;;
2546;SDS011;1283;47.982;7.834;2022-08-16T00:54:26;9.70;;;5.53;;
2546;SDS011;1283;47.982;7.834;2022-08-16T00:56:54;10.93;;;5.18;;
2546;SDS011;1283;47.982;7.834;2022-08-16T00:59:22;7.55;;;5.45;;
2546;SDS011;1283;47.982;7.834;2022-08-16T01:01:51;11.13;;;5.30;;
2546;SDS011;1283;47.982;7.834;2022-08-16T01:04:18;7.60;;;4.60;;
2546;SDS011;1283;47.982;7.834;2022-08-16T01:06:48;8.73;;;5.43;;
2546;SDS011;1283;47.982;7.834;2022-08-16T01:09:15;16.20;;;5.35;;
2546;SDS011;1283;47.982;7.834;2022-08-16T01:11:42;10.32;;;5.38;;
2546;SDS011;1283;47.982;7.834;2022-08-16T01:14:12;11.10;;;5.47;;
2546;SDS011;1283;47.982;7.834;2022-08-16T01:16:42;9.43;;;5.45;;
2546;SDS011;1283;47.982;7.834;2022-08-16T01:19:12;12.90;;;5.82;;
2546;SDS011;1283;47.982;7.834;2022-08-16T01:21:44;7.13;;;4.82;;
2546;SDS011;1283;47.982;7.834;2022-08-16T01:24:18;10.93;;;5.72;;
2546;SDS011;1283;47.982;7.834;2022-08-16T01:26:48;6.90;;;4.90;;
2546;SDS011;1283;47.982;7.834;2022-08-16T01:29:16;10.38;;;5.70;;
2546;SDS011;1283;47.982;7.834;2022-08-16T01:31:45;9.70;;;5.90;;
2546;SDS011;1283;47.982;7.834;2022-08-16T01:34:12;10.38;;;5.07;;
2546;SDS011;1283;47.982;7.834;2022-08-16T01:36:39;9.23;;;6.00;;
2546;SDS011;1283;47.982;7.834;2022-08-16T01:39:09;11.45;;;5.80;;
2546;SDS011;1283;47.982;7.834;2022-08-16T01:41:38;12.13;;;5.60;;
2546;SDS011;1283;47.982;7.834;2022-08-16T01:44:06;12.07;;;5.70;;
2546;SDS011;1283;47.982;7.834;2022-08-16T01:46:34;13.25;;;6.20;;
2546;SDS011;1283;47.982;7.834;2022-08-16T01:49:02;7.72;;;5.80;;
2546;SDS011;1283;47.982;7.834;2022-08-16T01:51:30;10.27;;;5.50;;
2546;SDS011;1283;47.982;7.834;2022-08-16T01:53:57;11.77;;;5.55;;
2546;SDS011;1283;47.982;7.834;2022-08-16T01:56:24;15.15;;;5.50;;
2546;SDS011;1283;47.982;7.834;2022-08-16T01:58:53;15.23;;;5.53;;
2546;SDS011;1283;47.982;7.834;2022-08-16T02:01:20;8.68;;;5.80;;
2546;SDS011;1283;47.982;7.834;2022-08-16T02:03:46;12.80;;;5.57;;
2546;SDS011;1283;47.982;7.834;2022-08-16T02:06:14;8.25;;;5.68;;
2546;SDS011;1283;47.982;7.834;2022-08-16T02:08:41;8.40;;;5.63;;
2546;SDS011;1283;47.982;7.834;2022-08-16T02:11:08;10.65;;;5.65;;
2546;SDS011;1283;47.982;7.834;2022-08-16T02:13:35;9.82;;;6.57;;
2546;SDS011;1283;47.982;7.834;2022-08-16T02:16:06;9.68;;;5.72;;
2546;SDS011;1283;47.982;7.834;2022-08-16T02:18:33;11.52;;;5.60;;
2546;SDS011;1283;47.982;7.834;2022-08-16T02:21:00;8.27;;;5.53;;
2546;SDS011;1283;47.982;7.834;2022-08-16T02:23:27;10.75;;;5.90;;
2546;SDS011;1283;47.982;7.834;2022-08-16T02:25:53;10.85;;;5.32;;
2546;SDS011;1283;47.982;7.834;2022-08-16T02:28:20;8.70;;;5.25;;
2546;SDS011;1283;47.982;7.834;2022-08-16T02:30:47;7.13;;;5.57;;
2546;SDS011;1283;47.982;7.834;2022-08-16T02:35:41;14.32;;;5.85;;
2546;SDS011;1283;47.982;7.834;2022-08-16T02:38:07;7.85;;;5.70;;
2546;SDS011;1283;47.982;7.834;2022-08-16T02:40:34;11.20;;;5.85;;
2546;SDS011;1283;47.982;7.834;2022-08-16T02:43:01;9.88;;;5.95;;
2546;SDS011;1283;47.982;7.834;2022-08-16T02:47:54;11.00;;;5.65;;
2546;SDS011;1283;47.982;7.834;2022-08-16T02:50:22;8.75;;;5.43;;
2546;SDS011;1283;47.982;7.834;2022-08-16T02:52:48;9.60;;;5.55;;
2546;SDS011;1283;47.982;7.834;2022-08-16T02:55:15;15.23;;;5.20;;
2546;SDS011;1283;47.982;7.834;2022-08-16T02:57:43;12.55;;;5.30;;
2546;SDS011;1283;47.982;7.834;2022-08-16T03:00:10;13.48;;;5.82;;
2546;SDS011;1283;47.982;7.834;2022-08-16T03:02:38;11.30;;;5.88;;
2546;SDS011;1283;47.982;7.834;2022-08-16T03:05:06;10.65;;;6.32;;
2546;SDS011;1283;47.982;7.834;2022-08-16T03:07:36;7.88;;;5.53;;
2546;SDS011;1283;47.982;7.834;2022-08-16T03:10:03;9.52;;;5.80;;
2546;SDS011;1283;47.982;7.834;2022-08-16T03:12:30;13.43;;;6.43;;
2546;SDS011;1283;47.982;7.834;2022-08-16T03:17:23;7.77;;;6.00;;
2546;SDS011;1283;47.982;7.834;2022-08-16T03:19:49;12.90;;;5.85;;
2546;SDS011;1283;47.982;7.834;2022-08-16T03:22:17;8.65;;;6.30;;
2546;SDS011;1283;47.982;7.834;2022-08-16T03:24:46;8.35;;;6.00;;
2546;SDS011;1283;47.982;7.834;2022-08-16T03:27:12;8.27;;;5.93;;
2546;SDS011;1283;47.982;7.834;2022-08-16T03:29:38;11.68;;;6.15;;
2546;SDS011;1283;47.982;7.834;2022-08-16T03:32:05;13.02;;;6.13;;
2546;SDS011;1283;47.982;7.834;2022-08-16T03:34:32;13.82;;;6.85;;
2546;SDS011;1283;47.982;7.834;2022-08-16T03:36:58;10.55;;;6.50;;
2546;SDS011;1283;47.982;7.834;2022-08-16T03:39:25;10.45;;;7.32;;
2546;SDS011;1283;47.982;7.834;2022-08-16T03:41:53;8.05;;;6.05;;
2546;SDS011;1283;47.982;7.834;2022-08-16T03:44:20;14.65;;;6.25;;
2546;SDS011;1283;47.982;7.834;2022-08-16T03:46:46;10.48;;;6.25;;
2546;SDS011;1283;47.982;7.834;2022-08-16T03:49:13;10.93;;;5.90;;
2546;SDS011;1283;47.982;7.834;2022-08-16T03:51:41;16.00;;;6.25;;
2546;SDS011;1283;47.982;7.834;2022-08-16T03:54:08;10.98;;;6.63;;
2546;SDS011;1283;47.982;7.834;2022-08-16T03:56:34;9.48;;;6.22;;
2546;SDS011;1283;47.982;7.834;2022-08-16T04:01:28;13.05;;;6.05;;
2546;SDS011;1283;47.982;7.834;2022-08-16T04:03:56;13.70;;;6.03;;
2546;SDS011;1283;47.982;7.834;2022-08-16T04:06:23;10.48;;;6.07;;
2546;SDS011;1283;47.982;7.834;2022-08-16T04:08:49;8.18;;;5.72;;
2546;SDS011;1283;47.982;7.834;2022-08-16T04:11:16;15.35;;;6.55;;
2546;SDS011;1283;47.982;7.834;2022-08-16T04:13:43;10.63;;;5.55;;
2546;SDS011;1283;47.982;7.834;2022-08-16T04:16:11;13.40;;;5.75;;
2546;SDS011;1283;47.982;7.834;2022-08-16T04:18:38;10.07;;;5.47;;
2546;SDS011;1283;47.982;7.834;2022-08-16T04:21:06;12.70;;;6.35;;
2546;SDS011;1283;47.982;7.834;2022-08-16T04:23:33;14.85;;;6.63;;
2546;SDS011;1283;47.982;7.834;2022-08-16T04:26:00;10.75;;;5.43;;
2546;SDS011;1283;47.982;7.834;2022-08-16T04:28:27;11.82;;;6.03;;
2546;SDS011;1283;47.982;7.834;2022-08-16T04:30:53;11.50;;;5.90;;
2546;SDS011;1283;47.982;7.834;2022-08-16T04:33:21;9.10;;;6.00;;
2546;SDS011;1283;47.982;7.834;2022-08-16T04:35:49;12.00;;;5.55;;
2546;SDS011;1283;47.982;7.834;2022-08-16T04:38:16;7.95;;;6.15;;
2546;SDS011;1283;47.982;7.834;2022-08-16T04:40:43;9.07;;;5.82;;
2546;SDS011;1283;47.982;7.834;2022-08-16T04:43:10;13.68;;;6.45;;
2546;SDS011;1283;47.982;7.834;2022-08-16T04:45:37;10.02;;;5.97;;
2546;SDS011;1283;47.982;7.834;2022-08-16T04:48:04;9.68;;;6.30;;
2546;SDS011;1283;47.982;7.834;2022-08-16T04:50:32;13.18;;;5.78;;
2546;SDS011;1283;47.982;7.834;2022-08-16T04:52:59;9.48;;;6.13;;
2546;SDS011;1283;47.982;7.834;2022-08-16T04:55:26;8.27;;;5.63;;
2546;SDS011;1283;47.982;7.834;2022-08-16T04:57:54;9.18;;;5.78;;
2546;SDS011;1283;47.982;7.834;2022-08-16T05:00:22;12.90;;;6.72;;
2546;SDS011;1283;47.982;7.834;2022-08-16T05:02:50;19.85;;;6.55;;
2546;SDS011;1283;47.982;7.834;2022-08-16T05:05:18;8.35;;;5.80;;
2546;SDS011;1283;47.982;7.834;2022-08-16T05:07:46;10.30;;;6.13;;
2546;SDS011;1283;47.982;7.834;2022-08-16T05:10:13;9.52;;;6.25;;
2546;SDS011;1283;47.982;7.834;2022-08-16T05:12:39;10.20;;;5.63;;
2546;SDS011;1283;47.982;7.834;2022-08-16T05:15:07;10.27;;;6.25;;
2546;SDS011;1283;47.982;7.834;2022-08-16T05:17:34;7.43;;;5.35;;
2546;SDS011;1283;47.982;7.834;2022-08-16T05:20:05;11.25;;;5.72;;
2546;SDS011;1283;47.982;7.834;2022-08-16T05:22:33;9.48;;;6.00;;
2546;SDS011;1283;47.982;7.834;2022-08-16T05:25:04;7.90;;;5.07;;
2546;SDS011;1283;47.982;7.834;2022-08-16T05:27:31;12.05;;;5.75;;
2546;SDS011;1283;47.982;7.834;2022-08-16T05:29:59;9.30;;;5.05;;
2546;SDS011;1283;47.982;7.834;2022-08-16T05:32:25;6.10;;;4.72;;
2546;SDS011;1283;47.982;7.834;2022-08-16T05:34:52;7.78;;;5.18;;
2546;SDS011;1283;47.982;7.834;2022-08-16T05:37:19;7.22;;;4.38;;
2546;SDS011;1283;47.982;7.834;2022-08-16T05:39:47;8.60;;;4.70;;
2546;SDS011;1283;47.982;7.834;2022-08-16T05:42:15;12.85;;;4.65;;
2546;SDS011;1283;47.982;7.834;2022-08-16T05:44:41;9.00;;;4.63;;
2546;SDS011;1283;47.982;7.834;2022-08-16T05:47:08;5.90;;;3.58;;
2546;SDS011;1283;47.982;7.834;2022-08-16T05:49:34;7.78;;;3.72;;
2546;SDS011;1283;47.982;7.834;2022-08-16T05:52:01;9.93;;;3.53;;
2546;SDS011;1283;47.982;7.834;2022-08-16T05:54:27;9.93;;;3.30;;
2546;SDS011;1283;47.982;7.834;2022-08-16T05:56:54;6.90;;;3.45;;
2546;SDS011;1283;47.982;7.834;2022-08-16T05:59:23;5.40;;;3.60;;
2546;SDS011;1283;47.982;7.834;2022-08-16T06:01:50;9.13;;;4.05;;
2546;SDS011;1283;47.982;7.834;2022-08-16T06:04:17;11.88;;;3.83;;
2546;SDS011;1283;47.982;7.834;2022-08-16T06:06:45;5.95;;;3.13;;
2546;SDS011;1283;47.982;7.834;2022-08-16T06:09:12;9.23;;;3.55;;
2546;SDS011;1283;47.982;7.834;2022-08-16T06:11:39;7.72;;;3.80;;
2546;SDS011;1283;47.982;7.834;2022-08-16T06:14:06;6.63;;;3.63;;
2546;SDS011;1283;47.982;7.834;2022-08-16T06:16:34;5.80;;;4.00;;
2546;SDS011;1283;47.982;7.834;2022-08-16T06:19:00;8.63;;;3.95;;
2546;SDS011;1283;47.982;7.834;2022-08-16T06:21:26;7.00;;;3.42;;
2546;SDS011;1283;47.982;7.834;2022-08-16T06:23:53;9.13;;;3.45;;
2546;SDS011;1283;47.982;7.834;2022-08-16T06:26:19;9.82;;;3.78;;
2546;SDS011;1283;47.982;7.834;2022-08-16T06:28:46;9.80;;;3.17;;
2546;SDS011;1283;47.982;7.834;2022-08-16T06:31:13;7.15;;;3.58;;
2546;SDS011;1283;47.982;7.834;2022-08-16T06:33:41;6.35;;;3.20;;
2546;SDS011;1283;47.982;7.834;2022-08-16T06:36:08;6.63;;;3.20;;
2546;SDS011;1283;47.982;7.834;2022-08-16T06:38:35;7.22;;;2.97;;
2546;SDS011;1283;47.982;7.834;2022-08-16T06:41:02;5.38;;;3.15;;
2546;SDS011;1283;47.982;7.834;2022-08-16T06:43:30;5.80;;;3.92;;
2546;SDS011;1283;47.982;7.834;2022-08-16T06:45:57;12.80;;;3.60;;
2546;SDS011;1283;47.982;7.834;2022-08-16T06:48:23;11.10;;;3.38;;
2546;SDS011;1283;47.982;7.834;2022-08-16T06:50:51;6.78;;;3.40;;
2546;SDS011;1283;47.982;7.834;2022-08-16T06:53:18;6.93;;;3.78;;
2546;SDS011;1283;47.982;7.834;2022-08-16T06:55:44;5.45;;;3.55;;
2546;SDS011;1283;47.982;7.834;2022-08-16T06:58:11;4.22;;;3.20;;
2546;SDS011;1283;47.982;7.834;2022-08-16T07:00:37;8.27;;;3.45;;
2546;SDS011;1283;47.982;7.834;2022-08-16T07:03:04;6.03;;;2.83;;
2546;SDS011;1283;47.982;7.834;2022-08-16T07:05:31;8.55;;;3.60;;
2546;SDS011;1283;47.982;7.834;2022-08-16T07:07:59;8.25;;;3.50;;
2546;SDS011;1283;47.982;7.834;2022-08-16T07:10:28;6.05;;;3.35;;
2546;SDS011;1283;47.982;7.834;2022-08-16T07:12:54;11.25;;;3.45;;
2546;SDS011;1283;47.982;7.834;2022-08-16T07:15:21;6.47;;;3.30;;
2546;SDS011;1283;47.982;7.834;2022-08-16T07:17:47;9.73;;;3.47;;
2546;SDS011;1283;47.982;7.834;2022-08-16T07:20:14;5.40;;;3.50;;
2546;SDS011;1283;47.982;7.834;2022-08-16T07:22:43;9.45;;;3.85;;
2546;SDS011;1283;47.982;7.834;2022-08-16T07:25:12;6.82;;;3.42;;
2546;SDS011;1283;47.982;7.834;2022-08-16T07:27:39;8.00;;;3.70;;
2546;SDS011;1283;47.982;7.834;2022-08-16T07:30:07;8.40;;;3.65;;
2546;SDS011;1283;47.982;7.834;2022-08-16T07:32:36;8.40;;;4.00;;
2546;SDS011;1283;47.982;7.834;2022-08-16T07:35:03;8.32;;;3.28;;
2546;SDS011;1283;47.982;7.834;2022-08-16T07:37:30;9.63;;;3.80;;
2546;SDS011;1283;47.982;7.834;2022-08-16T07:39:56;10.25;;;4.20;;
2546;SDS011;1283;47.982;7.834;2022-08-16T07:42:24;7.38;;;3.90;;
2546;SDS011;1283;47.982;7.834;2022-08-16T07:44:51;6.90;;;3.70;;
2546;SDS011;1283;47.982;7.834;2022-08-16T07:47:19;15.93;;;4.05;;
2546;SDS011;1283;47.982;7.834;2022-08-16T07:49:45;9.93;;;3.88;;
2546;SDS011;1283;47.982;7.834;2022-08-16T07:52:12;10.63;;;3.90;;
2546;SDS011;1283;47.982;7.834;2022-08-16T07:54:38;7.82;;;3.50;;
2546;SDS011;1283;47.982;7.834;2022-08-16T07:57:04;11.73;;;4.25;;
2546;SDS011;1283;47.982;7.834;2022-08-16T07:59:32;13.80;;;4.15;;
2546;SDS011;1283;47.982;7.834;2022-08-16T08:01:59;6.88;;;3.40;;
2546;SDS011;1283;47.982;7.834;2022-08-16T08:04:25;8.50;;;3.70;;
2546;SDS011;1283;47.982;7.834;2022-08-16T08:06:52;7.28;;;4.05;;
2546;SDS011;1283;47.982;7.834;2022-08-16T08:09:18;9.60;;;3.65;;
2546;SDS011;1283;47.982;7.834;2022-08-16T08:11:45;14.05;;;4.38;;
2546;SDS011;1283;47.982;7.834;2022-08-16T08:14:11;5.53;;;3.50;;
2546;SDS011;1283;47.982;7.834;2022-08-16T08:16:41;9.52;;;4.10;;
2546;SDS011;1283;47.982;7.834;2022-08-16T08:19:08;6.60;;;3.40;;
2546;SDS011;1283;47.982;7.834;2022-08-16T08:21:36;7.90;;;3.65;;
2546;SDS011;1283;47.982;7.834;2022-08-16T08:24:06;9.30;;;3.65;;
2546;SDS011;1283;47.982;7.834;2022-08-16T08:26:33;13.00;;;3.78;;
2546;SDS011;1283;47.982;7.834;2022-08-16T08:28:59;7.88;;;3.20;;
2546;SDS011;1283;47.982;7.834;2022-08-16T08:31:26;9.73;;;3.45;;
2546;SDS011;1283;47.982;7.834;2022-08-16T08:33:54;10.23;;;3.40;;
2546;SDS011;1283;47.982;7.834;2022-08-16T08:36:22;8.60;;;3.53;;
2546;SDS011;1283;47.982;7.834;2022-08-16T08:38:51;11.57;;;3.70;;
2546;SDS011;1283;47.982;7.834;2022-08-16T08:41:17;10.52;;;3.28;;
2546;SDS011;1283;47.982;7.834;2022-08-16T08:43:44;9.55;;;4.13;;
2546;SDS011;1283;47.982;7.834;2022-08-16T08:46:10;8.88;;;3.72;;
2546;SDS011;1283;47.982;7.834;2022-08-16T08:48:37;10.77;;;4.40;;
2546;SDS011;1283;47.982;7.834;2022-08-16T08:51:05;8.70;;;3.95;;
2546;SDS011;1283;47.982;7.834;2022-08-16T08:53:33;9.57;;;4.30;;
2546;SDS011;1283;47.982;7.834;2022-08-16T08:56:00;11.18;;;4.15;;
2546;SDS011;1283;47.982;7.834;2022-08-16T08:58:27;12.07;;;4.53;;
2546;SDS011;1283;47.982;7.834;2022-08-16T09:00:54;13.93;;;3.92;;
2546;SDS011;1283;47.982;7.834;2022-08-16T09:03:21;12.30;;;3.45;;
2546;SDS011;1283;47.982;7.834;2022-08-16T09:05:48;19.00;;;4.10;;
2546;SDS011;1283;47.982;7.834;2022-08-16T09:08:16;5.38;;;3.83;;
2546;SDS011;1283;47.982;7.834;2022-08-16T09:10:42;12.25;;;4.25;;
2546;SDS011;1283;47.982;7.834;2022-08-16T09:13:09;8.07;;;3.80;;
2546;SDS011;1283;47.982;7.834;2022-08-16T09:15:35;7.63;;;3.83;;
2546;SDS011;1283;47.982;7.834;2022-08-16T09:18:02;11.05;;;3.60;;
2546;SDS011;1283;47.982;7.834;2022-08-16T09:20:30;6.10;;;3.85;;
2546;SDS011;1283;47.982;7.834;2022-08-16T09:22:57;8.32;;;4.53;;
2546;SDS011;1283;47.982;7.834;2022-08-16T09:25:28;12.18;;;3.97;;
2546;SDS011;1283;47.982;7.834;2022-08-16T09:27:55;12.05;;;4.15;;
2546;SDS011;1283;47.982;7.834;2022-08-16T09:30:21;10.35;;;3.67;;
2546;SDS011;1283;47.982;7.834;2022-08-16T09:32:48;11.15;;;3.65;;
2546;SDS011;1283;47.982;7.834;2022-08-16T09:35:14;8.00;;;3.70;;
2546;SDS011;1283;47.982;7.834;2022-08-16T09:37:41;9.75;;;3.65;;
2546;SDS011;1283;47.982;7.834;2022-08-16T09:40:08;13.20;;;3.95;;
2546;SDS011;1283;47.982;7.834;2022-08-16T09:42:36;14.95;;;4.25;;
2546;SDS011;1283;47.982;7.834;2022-08-16T09:45:03;9.48;;;3.97;;
2546;SDS011;1283;47.982;7.834;2022-08-16T09:47:31;8.35;;;3.80;;
2546;SDS011;1283;47.982;7.834;2022-08-16T09:49:57;6.70;;;3.40;;
2546;SDS011;1283;47.982;7.834;2022-08-16T09:52:24;9.80;;;3.72;;
2546;SDS011;1283;47.982;7.834;2022-08-16T09:54:50;7.55;;;3.80;;
2546;SDS011;1283;47.982;7.834;2022-08-16T09:57:18;9.43;;;3.97;;
2546;SDS011;1283;47.982;7.834;2022-08-16T09:59:45;10.30;;;3.70;;
2546;SDS011;1283;47.982;7.834;2022-08-16T10:02:12;15.15;;;3.67;;
2546;SDS011;1283;47.982;7.834;2022-08-16T10:04:38;5.32;;;3.20;;
2546;SDS011;1283;47.982;7.834;2022-08-16T10:07:05;7.88;;;3.42;;
2546;SDS011;1283;47.982;7.834;2022-08-16T10:09:31;11.07;;;3.20;;
2546;SDS011;1283;47.982;7.834;2022-08-16T10:11:59;8.23;;;3.20;;
2546;SDS011;1283;47.982;7.834;2022-08-16T10:14:43;9.25;;;3.50;;
2546;SDS011;1283;47.982;7.834;2022-08-16T10:17:11;8.95;;;3.53;;
2546;SDS011;1283;47.982;7.834;2022-08-16T10:19:38;6.57;;;3.35;;
2546;SDS011;1283;47.982;7.834;2022-08-16T10:22:04;7.03;;;3.50;;
2546;SDS011;1283;47.982;7.834;2022-08-16T10:24:31;6.50;;;3.78;;
2546;SDS011;1283;47.982;7.834;2022-08-16T10:26:58;8.05;;;4.07;;
2546;SDS011;1283;47.982;7.834;2022-08-16T10:29:24;8.02;;;3.47;;
2546;SDS011;1283;47.982;7.834;2022-08-16T10:31:51;16.77;;;3.30;;
2546;SDS011;1283;47.982;7.834;2022-08-16T10:34:18;6.93;;;3.00;;
2546;SDS011;1283;47.982;7.834;2022-08-16T10:36:45;5.57;;;2.97;;
2546;SDS011;1283;47.982;7.834;2022-08-16T10:39:11;7.65;;;3.15;;
2546;SDS011;1283;47.982;7.834;2022-08-16T10:41:38;6.60;;;2.78;;
2546;SDS011;1283;47.982;7.834;2022-08-16T10:44:05;4.85;;;2.90;;
2546;SDS011;1283;47.982;7.834;2022-08-16T10:46:31;11.88;;;2.60;;
2546;SDS011;1283;47.982;7.834;2022-08-16T10:48:58;8.95;;;2.70;;
2546;SDS011;1283;47.982;7.834;2022-08-16T10:51:26;18.17;;;3.75;;
2546;SDS011;1283;47.982;7.834;2022-08-16T10:53:52;7.30;;;3.38;;
2546;SDS011;1283;47.982;7.834;2022-08-16T10:56:19;5.35;;;3.00;;
2546;SDS011;1283;47.982;7.834;2022-08-16T10:58:49;8.73;;;3.17;;
2546;SDS011;1283;47.982;7.834;2022-08-16T11:01:16;12.68;;;3.08;;
2546;SDS011;1283;47.982;7.834;2022-08-16T11:03:42;3.67;;;3.03;;
2546;SDS011;1283;47.982;7.834;2022-08-16T11:06:09;6.88;;;3.15;;
2546;SDS011;1283;47.982;7.834;2022-08-16T11:08:37;3.85;;;2.80;;
2546;SDS011;1283;47.982;7.834;2022-08-16T11:11:05;10.38;;;3.25;;
2546;SDS011;1283;47.982;7.834;2022-08-16T11:13:32;10.65;;;2.70;;
2546;SDS011;1283;47.982;7.834;2022-08-16T11:15:59;9.75;;;2.75;;
2546;SDS011;1283;47.982;7.834;2022-08-16T11:18:26;3.60;;;2.40;;
2546;SDS011;1283;47.982;7.834;2022-08-16T11:20:54;10.15;;;2.45;;
2546;SDS011;1283;47.982;7.834;2022-08-16T11:23:21;8.45;;;3.05;;
2546;SDS011;1283;47.982;7.834;2022-08-16T11:25:49;7.25;;;2.63;;
2546;SDS011;1283;47.982;7.834;2022-08-16T11:28:16;5.20;;;2.92;;
2546;SDS011;1283;47.982;7.834;2022-08-16T11:30:43;6.20;;;2.85;;
2546;SDS011;1283;47.982;7.834;2022-08-16T11:33:10;8.73;;;2.35;;
2546;SDS011;1283;47.982;7.834;2022-08-16T11:35:37;9.75;;;2.95;;
2546;SDS011;1283;47.982;7.834;2022-08-16T11:38:05;7.43;;;2.70;;
2546;SDS011;1283;47.982;7.834;2022-08-16T11:40:35;7.15;;;2.20;;
2546;SDS011;1283;47.982;7.834;2022-08-16T11:43:05;6.85;;;3.17;;
2546;SDS011;1283;47.982;7.834;2022-08-16T11:45:31;8.13;;;2.92;;
2546;SDS011;1283;47.982;7.834;2022-08-16T11:47:59;5.38;;;2.67;;
2546;SDS011;1283;47.982;7.834;2022-08-16T11:50:28;8.77;;;3.10;;
2546;SDS011;1283;47.982;7.834;2022-08-16T11:52:57;10.20;;;3.40;;
2546;SDS011;1283;47.982;7.834;2022-08-16T11:55:23;5.40;;;3.00;;
2546;SDS011;1283;47.982;7.834;2022-08-16T11:57:50;7.28;;;2.70;;
2546;SDS011;1283;47.982;7.834;2022-08-16T12:00:18;7.57;;;2.40;;
2546;SDS011;1283;47.982;7.834;2022-08-16T12:02:44;6.10;;;2.60;;
2546;SDS011;1283;47.982;7.834;2022-08-16T12:05:11;5.68;;;3.03;;
2546;SDS011;1283;47.982;7.834;2022-08-16T12:07:40;5.22;;;2.70;;
2546;SDS011;1283;47.982;7.834;2022-08-16T12:10:07;5.78;;;2.65;;
2546;SDS011;1283;47.982;7.834;2022-08-16T12:12:36;7.10;;;2.63;;
2546;SDS011;1283;47.982;7.834;2022-08-16T12:15:02;9.10;;;3.28;;
2546;SDS011;1283;47.982;7.834;2022-08-16T12:17:31;7.78;;;3.00;;
2546;SDS011;1283;47.982;7.834;2022-08-16T12:19:58;7.15;;;2.83;;
2546;SDS011;1283;47.982;7.834;2022-08-16T12:22:25;21.63;;;3.00;;
2546;SDS011;1283;47.982;7.834;2022-08-16T12:24:51;11.18;;;2.75;;
2546;SDS011;1283;47.982;7.834;2022-08-16T12:27:19;249.75;;;18.35;;
2546;SDS011;1283;47.982;7.834;2022-08-16T12:29:47;5.32;;;2.70;;
2546;SDS011;1283;47.982;7.834;2022-08-16T12:32:15;6.50;;;2.78;;
2546;SDS011;1283;47.982;7.834;2022-08-16T12:34:43;11.05;;;2.92;;
2546;SDS011;1283;47.982;7.834;2022-08-16T12:37:09;5.13;;;2.50;;
2546;SDS011;1283;47.982;7.834;2022-08-16T12:39:38;7.07;;;3.10;;
2546;SDS011;1283;47.982;7.834;2022-08-16T12:42:04;4.93;;;2.25;;
2546;SDS011;1283;47.982;7.834;2022-08-16T12:44:33;6.05;;;2.58;;
2546;SDS011;1283;47.982;7.834;2022-08-16T12:47:00;11.00;;;2.63;;
2546;SDS011;1283;47.982;7.834;2022-08-16T12:49:45;4.30;;;2.40;;
2546;SDS011;1283;47.982;7.834;2022-08-16T12:52:12;5.70;;;2.42;;
2546;SDS011;1283;47.982;7.834;2022-08-16T12:54:39;6.35;;;2.60;;
2546;SDS011;1283;47.982;7.834;2022-08-16T12:57:07;8.55;;;3.53;;
2546;SDS011;1283;47.982;7.834;2022-08-16T12:59:34;5.15;;;2.80;;
2546;SDS011;1283;47.982;7.834;2022-08-16T13:02:00;4.05;;;2.38;;
2546;SDS011;1283;47.982;7.834;2022-08-16T13:04:27;7.22;;;3.05;;
2546;SDS011;1283;47.982;7.834;2022-08-16T13:06:56;6.72;;;2.55;;
2546;SDS011;1283;47.982;7.834;2022-08-16T13:09:23;13.02;;;2.90;;
2546;SDS011;1283;47.982;7.834;2022-08-16T13:11:55;8.18;;;2.75;;
2546;SDS011;1283;47.982;7.834;2022-08-16T13:14:27;5.80;;;2.88;;
2546;SDS011;1283;47.982;7.834;2022-08-16T13:16:57;8.25;;;2.60;;
2546;SDS011;1283;47.982;7.834;2022-08-16T13:19:24;5.50;;;2.70;;
2546;SDS011;1283;47.982;7.834;2022-08-16T13:21:50;7.38;;;2.40;;
2546;SDS011;1283;47.982;7.834;2022-08-16T13:24:18;10.10;;;2.53;;
2546;SDS011;1283;47.982;7.834;2022-08-16T13:26:45;9.18;;;3.05;;
2546;SDS011;1283;47.982;7.834;2022-08-16T13:29:11;4.28;;;2.72;;
2546;SDS011;1283;47.982;7.834;2022-08-16T13:31:37;8.27;;;2.50;;
2546;SDS011;1283;47.982;7.834;2022-08-16T13:34:04;7.07;;;2.60;;
2546;SDS011;1283;47.982;7.834;2022-08-16T13:36:31;5.15;;;2.97;;
2546;SDS011;1283;47.982;7.834;2022-08-16T13:38:58;3.15;;;2.35;;
2546;SDS011;1283;47.982;7.834;2022-08-16T13:41:26;15.25;;;2.50;;
2546;SDS011;1283;47.982;7.834;2022-08-16T13:43:52;5.88;;;2.53;;
2546;SDS011;1283;47.982;7.834;2022-08-16T13:46:19;6.20;;;2.47;;
2546;SDS011;1283;47.982;7.834;2022-08-16T13:48:46;4.15;;;2.75;;
2546;SDS011;1283;47.982;7.834;2022-08-16T13:51:13;8.00;;;3.03;;
2546;SDS011;1283;47.982;7.834;2022-08-16T13:53:40;7.53;;;2.53;;
2546;SDS011;1283;47.982;7.834;2022-08-16T13:56:07;7.82;;;2.40;;
2546;SDS011;1283;47.982;7.834;2022-08-16T13:58:35;4.82;;;2.53;;
2546;SDS011;1283;47.982;7.834;2022-08-16T14:01:01;5.28;;;2.50;;
2546;SDS011;1283;47.982;7.834;2022-08-16T14:03:28;7.93;;;2.85;;
2546;SDS011;1283;47.982;7.834;2022-08-16T14:05:54;6.15;;;2.50;;
2546;SDS011;1283;47.982;7.834;2022-08-16T14:08:21;13.85;;;3.13;;
2546;SDS011;1283;47.982;7.834;2022-08-16T14:10:47;9.35;;;2.80;;
2546;SDS011;1283;47.982;7.834;2022-08-16T14:13:14;4.55;;;2.80;;
2546;SDS011;1283;47.982;7.834;2022-08-16T14:15:42;5.15;;;2.83;;
2546;SDS011;1283;47.982;7.834;2022-08-16T14:18:08;4.18;;;2.72;;
2546;SDS011;1283;47.982;7.834;2022-08-16T14:20:34;5.55;;;2.58;;
2546;SDS011;1283;47.982;7.834;2022-08-16T14:23:01;5.97;;;2.92;;
2546;SDS011;1283;47.982;7.834;2022-08-16T14:25:29;6.45;;;2.92;;
2546;SDS011;1283;47.982;7.834;2022-08-16T14:27:56;5.13;;;2.63;;
2546;SDS011;1283;47.982;7.834;2022-08-16T14:30:23;5.50;;;2.67;;
2546;SDS011;1283;47.982;7.834;2022-08-16T14:32:51;6.82;;;2.80;;
2546;SDS011;1283;47.982;7.834;2022-08-16T14:35:18;6.50;;;2.35;;
2546;SDS011;1283;47.982;7.834;2022-08-16T14:37:47;5.05;;;2.42;;
2546;SDS011;1283;47.982;7.834;2022-08-16T14:40:14;5.28;;;2.63;;
2546;SDS011;1283;47.982;7.834;2022-08-16T14:42:42;2.92;;;2.58;;
2546;SDS011;1283;47.982;7.834;2022-08-16T14:45:09;5.40;;;2.83;;
2546;SDS011;1283;47.982;7.834;2022-08-16T14:47:37;4.65;;;2.67;;
2546;SDS011;1283;47.982;7.834;2022-08-16T14:50:07;6.57;;;2.50;;
2546;SDS011;1283;47.982;7.834;2022-08-16T14:52:35;6.88;;;2.25;;
2546;SDS011;1283;47.982;7.834;2022-08-16T14:55:02;4.63;;;2.35;;
2546;SDS011;1283;47.982;7.834;2022-08-16T14:57:29;7.30;;;2.75;;
2546;SDS011;1283;47.982;7.834;2022-08-16T14:59:55;5.43;;;2.83;;
2546;SDS011;1283;47.982;7.834;2022-08-16T15:02:22;9.45;;;2.53;;
2546;SDS011;1283;47.982;7.834;2022-08-16T15:04:50;7.50;;;2.25;;
2546;SDS011;1283;47.982;7.834;2022-08-16T15:07:19;3.03;;;2.22;;
2546;SDS011;1283;47.982;7.834;2022-08-16T15:09:46;3.97;;;2.30;;
2546;SDS011;1283;47.982;7.834;2022-08-16T15:12:15;4.38;;;2.28;;
2546;SDS011;1283;47.982;7.834;2022-08-16T15:14:42;6.15;;;2.38;;
2546;SDS011;1283;47.982;7.834;2022-08-16T15:17:09;6.32;;;2.42;;
2546;SDS011;1283;47.982;7.834;2022-08-16T15:19:36;5.00;;;2.20;;
2546;SDS011;1283;47.982;7.834;2022-08-16T15:22:08;9.77;;;2.00;;